Time;durP1;ratioP1;P1;durP2;ratioP2;P2;SDS_P1;SDS_P2;PMS_P1;PMS_P2;Temp;Humidity;BMP_temperature;BMP_pressure;BME280_temperature;BME280_humidity;BME280_pressure;Samples;Min_cycle;Max_cycle;Signal;HPM_P1;HPM_P2
2021/08/28 00:00:10;;;;;;;14.80;12.60;;;;;;;20.80;68.51;100270.06;117614;1185;21876;-85
2021/08/28 00:02:38;;;;;;;13.90;12.50;;;;;;;20.77;68.64;100271.31;117608;1186;21857;-85
2021/08/28 00:05:07;;;;;;;15.80;12.80;;;;;;;20.74;68.65;100269.13;117700;1185;21873;-85
2021/08/28 00:07:35;;;;;;;15.40;13.00;;;;;;;20.73;68.68;100267.80;117406;1181;22915;-85
2021/08/28 00:10:07;;;;;;;15.80;12.90;;;;;;;20.69;68.71;100266.16;117585;1182;22912;-85
2021/08/28 00:12:35;;;;;;;13.50;12.10;;;;;;;20.59;68.78;100270.85;117528;1183;21864;-85
2021/08/28 00:15:06;;;;;;;13.90;12.40;;;;;;;20.56;68.86;100268.01;117573;1186;21856;-85
2021/08/28 00:17:35;;;;;;;14.10;11.90;;;;;;;20.54;68.78;100267.02;117615;1182;22916;-84
2021/08/28 00:20:04;;;;;;;13.60;12.20;;;;;;;20.52;68.78;100265.71;117548;1186;22813;-85
2021/08/28 00:22:33;;;;;;;18.60;12.20;;;;;;;20.51;68.81;100268.13;117571;1185;22011;-85
2021/08/28 00:25:03;;;;;;;17.30;13.60;;;;;;;20.49;68.80;100268.75;117510;1185;23542;-85
2021/08/28 00:27:33;;;;;;;13.60;12.00;;;;;;;20.50;68.70;100277.07;117601;1181;23437;-85
2021/08/28 00:30:06;;;;;;;14.60;13.10;;;;;;;20.44;68.72;100280.98;117558;1182;21962;-85
2021/08/28 00:32:35;;;;;;;15.50;13.10;;;;;;;20.39;69.03;100285.52;117338;1186;23582;-85
2021/08/28 00:35:04;;;;;;;15.60;13.00;;;;;;;20.38;69.09;100285.90;117334;1186;21859;-85
2021/08/28 00:37:32;;;;;;;14.90;13.20;;;;;;;20.42;68.95;100289.27;117391;1187;21860;-85
2021/08/28 00:40:00;;;;;;;16.20;13.70;;;;;;;20.41;68.88;100289.52;117358;1186;21849;-85
2021/08/28 00:42:28;;;;;;;14.50;13.00;;;;;;;20.41;68.80;100291.83;117540;1182;23031;-85
2021/08/28 00:44:57;;;;;;;13.90;12.60;;;;;;;20.42;68.75;100299.06;117512;1184;22651;-85
2021/08/28 00:47:28;;;;;;;15.10;13.00;;;;;;;20.42;68.76;100301.18;117541;1184;21860;-85
2021/08/28 00:49:56;;;;;;;15.20;12.60;;;;;;;20.44;68.69;100300.03;117527;1182;22976;-85
2021/08/28 00:52:24;;;;;;;15.60;14.00;;;;;;;20.41;68.69;100298.94;117594;1182;23541;-85
2021/08/28 00:54:52;;;;;;;16.80;13.50;;;;;;;20.37;68.86;100298.10;117429;1179;22914;-85
2021/08/28 00:57:21;;;;;;;15.20;13.20;;;;;;;20.34;69.13;100295.54;117538;1183;22954;-85
2021/08/28 00:59:49;;;;;;;16.00;12.70;;;;;;;20.36;69.18;100292.98;117585;1176;21859;-85
2021/08/28 01:02:19;;;;;;;15.80;12.70;;;;;;;20.39;69.12;100292.45;117585;1179;21858;-85
2021/08/28 01:04:55;;;;;;;18.50;13.40;;;;;;;20.47;69.20;100290.92;117577;1182;21856;-85
2021/08/28 01:07:29;;;;;;;16.20;12.70;;;;;;;20.55;69.16;100290.69;117329;1185;22972;-85
2021/08/28 01:09:59;;;;;;;16.80;12.20;;;;;;;20.62;69.20;100292.98;117600;1181;23538;-85
2021/08/28 01:12:32;;;;;;;14.30;11.10;;;;;;;20.71;69.14;100291.04;117461;1182;22810;-85
2021/08/28 01:15:06;;;;;;;17.10;14.00;;;;;;;20.76;69.13;100289.34;117389;1183;21891;-85
2021/08/28 01:17:35;;;;;;;17.90;14.80;;;;;;;20.79;69.03;100289.20;117417;1184;21875;-85
2021/08/28 01:20:05;;;;;;;18.80;15.50;;;;;;;20.81;69.01;100289.99;117644;1183;23438;-85
2021/08/28 01:22:36;;;;;;;20.80;15.60;;;;;;;20.87;68.90;100286.97;117586;1182;21935;-85
2021/08/28 01:25:04;;;;;;;;;;;;;;;20.94;68.87;100284.11;117544;1186;23544;-85
2021/08/28 01:27:45;;;;;;;21.00;15.20;;;;;;;20.98;69.03;100283.70;117523;1186;21848;-85
2021/08/28 01:30:13;;;;;;;23.00;15.80;;;;;;;20.98;69.27;100283.54;117438;1185;21877;-85
2021/08/28 01:32:42;;;;;;;20.40;15.40;;;;;;;21.01;69.28;100280.63;117444;1178;23445;-85
2021/08/28 01:35:12;;;;;;;20.30;15.30;;;;;;;21.07;69.34;100285.15;117302;1186;23541;-85
2021/08/28 01:37:41;;;;;;;21.30;16.20;;;;;;;21.09;69.44;100286.79;117501;1183;22324;-85
2021/08/28 01:40:10;;;;;;;21.50;16.20;;;;;;;21.13;69.62;100286.75;117335;1182;23535;-85
2021/08/28 01:42:39;;;;;;;18.40;15.00;;;;;;;21.18;69.59;100285.92;117481;1186;23570;-85
2021/08/28 01:45:11;;;;;;;24.20;15.10;;;;;;;21.25;69.54;100287.30;117448;1184;21859;-85
2021/08/28 01:47:43;;;;;;;22.50;15.50;;;;;;;21.30;69.57;100285.27;117424;1183;22915;-85
2021/08/28 01:50:11;;;;;;;22.50;15.50;;;;;;;21.35;69.47;100283.33;117437;1185;22626;-85
2021/08/28 01:52:39;;;;;;;20.00;15.20;;;;;;;21.39;69.41;100281.30;117542;1186;22981;-85
2021/08/28 01:55:08;;;;;;;20.20;15.80;;;;;;;21.37;69.54;100280.38;117319;1187;23551;-85
2021/08/28 01:57:36;;;;;;;23.60;17.40;;;;;;;21.37;69.62;100278.20;117593;1186;21868;-85
2021/08/28 02:00:05;;;;;;;22.30;17.60;;;;;;;21.35;69.64;100276.19;117472;1186;21867;-85
2021/08/28 02:02:33;;;;;;;22.10;17.30;;;;;;;21.36;69.46;100269.70;117598;1185;21864;-85
2021/08/28 02:05:02;;;;;;;22.80;16.00;;;;;;;21.36;69.44;100269.90;117573;1183;22698;-85
2021/08/28 02:07:49;;;;;;;23.10;15.10;;;;;;;21.33;69.42;100268.98;117449;1181;22671;-84
2021/08/28 02:10:31;;;;;;;22.60;16.80;;;;;;;21.30;69.36;100269.88;117361;1188;21861;-85
2021/08/28 02:13:01;;;;;;;22.50;15.60;;;;;;;21.26;69.28;100267.10;117279;1184;22919;-85
2021/08/28 02:15:38;;;;;;;27.20;15.30;;;;;;;21.22;69.10;100262.68;117413;1185;23541;-85
2021/08/28 02:18:19;;;;;;;21.40;14.90;;;;;;;21.17;69.20;100260.66;117366;1182;21854;-85
2021/08/28 02:20:50;;;;;;;18.20;15.60;;;;;;;21.12;69.29;100263.48;117258;1187;21856;-85
2021/08/28 02:23:35;;;;;;;18.40;14.80;;;;;;;21.07;69.32;100267.27;117566;1186;21858;-85
2021/08/28 02:26:19;;;;;;;18.90;13.10;;;;;;;20.96;69.38;100270.42;117671;1183;22933;-85
2021/08/28 02:29:02;;;;;;;16.00;12.80;;;;;;;20.85;69.57;100277.30;117389;1184;22929;-84
2021/08/28 02:31:37;;;;;;;16.50;13.50;;;;;;;20.76;69.67;100274.06;117344;1187;23634;-86
2021/08/28 02:34:05;;;;;;;15.10;12.20;;;;;;;20.70;69.57;100279.35;117408;1183;22951;-85
2021/08/28 02:36:33;;;;;;;16.30;13.30;;;;;;;20.70;69.29;100280.58;117369;1183;24064;-86
2021/08/28 02:39:02;;;;;;;17.80;13.00;;;;;;;20.81;69.17;100280.70;117382;1185;21882;-84
2021/08/28 02:41:30;;;;;;;19.10;14.60;;;;;;;20.94;68.97;100279.30;117642;1181;22912;-84
2021/08/28 02:43:58;;;;;;;23.90;14.80;;;;;;;20.96;68.90;100286.46;117433;1186;23458;-84
2021/08/28 02:46:26;;;;;;;18.20;14.50;;;;;;;20.92;69.00;100289.02;117547;1185;21870;-84
2021/08/28 02:48:55;;;;;;;20.90;15.60;;;;;;;20.92;69.00;100288.80;117539;1185;21863;-84
2021/08/28 02:51:23;;;;;;;18.40;14.50;;;;;;;20.92;69.01;100289.89;117323;1186;21943;-84
2021/08/28 02:53:52;;;;;;;18.10;14.20;;;;;;;20.89;68.87;100286.88;117409;1184;23542;-85
2021/08/28 02:56:21;;;;;;;19.10;14.20;;;;;;;20.88;68.75;100291.02;117344;1186;21867;-85
2021/08/28 02:58:50;;;;;;;16.20;14.40;;;;;;;20.87;68.54;100290.21;117381;1184;23542;-84
2021/08/28 03:01:18;;;;;;;23.00;14.70;;;;;;;20.80;68.60;100291.46;117592;1185;22157;-84
2021/08/28 03:03:46;;;;;;;20.70;15.00;;;;;;;20.71;68.86;100295.17;117416;1186;21864;-84
2021/08/28 03:06:14;;;;;;;21.00;15.50;;;;;;;20.65;69.04;100294.23;117550;1186;21854;-85
2021/08/28 03:08:42;;;;;;;29.30;16.10;;;;;;;20.62;69.11;100298.14;117390;1184;22926;-84
2021/08/28 03:11:12;;;;;;;18.20;14.30;;;;;;;20.64;69.10;100299.84;117373;1179;23456;-84
2021/08/28 03:13:41;;;;;;;18.90;14.70;;;;;;;20.62;69.33;100299.93;117410;1184;21858;-84
2021/08/28 03:16:12;;;;;;;19.70;14.90;;;;;;;20.58;69.52;100307.61;117558;1182;23583;-84
2021/08/28 03:18:41;;;;;;;;;;;;;;;20.57;69.63;100310.19;117597;1184;22800;-85
2021/08/28 03:21:11;;;;;;;20.50;13.10;;;;;;;20.60;69.59;100310.39;117549;1181;23263;-84
2021/08/28 03:23:40;;;;;;;19.90;13.90;;;;;;;20.63;69.53;100311.98;117537;1186;23573;-84
2021/08/28 03:26:08;;;;;;;17.70;13.80;;;;;;;20.68;69.53;100309.05;117313;1186;21858;-84
2021/08/28 03:28:37;;;;;;;20.20;15.00;;;;;;;20.72;69.58;100310.63;117310;1185;23542;-84
2021/08/28 03:31:05;;;;;;;17.10;14.60;;;;;;;20.72;69.62;100312.54;117628;1183;21961;-84
2021/08/28 03:33:33;;;;;;;22.00;17.90;;;;;;;20.74;69.80;100315.83;117543;1185;22846;-84
2021/08/28 03:36:01;;;;;;;22.40;17.10;;;;;;;20.78;70.04;100316.38;117445;1182;21859;-84
2021/08/28 03:38:29;;;;;;;30.90;17.60;;;;;;;20.82;70.12;100318.85;117436;1185;22913;-85
2021/08/28 03:40:57;;;;;;;25.10;17.10;;;;;;;20.85;70.03;100313.67;117355;1182;21848;-85
2021/08/28 03:43:26;;;;;;;26.10;17.90;;;;;;;20.88;69.86;100316.31;117564;1186;21865;-84
2021/08/28 03:45:54;;;;;;;23.40;16.30;;;;;;;20.92;69.64;100313.78;117339;1186;23543;-82
2021/08/28 03:48:23;;;;;;;20.70;15.80;;;;;;;20.97;69.57;100319.94;117469;1186;23091;-83
2021/08/28 03:50:51;;;;;;;20.30;15.50;;;;;;;21.02;69.39;100324.11;117434;1184;21867;-87
2021/08/28 03:53:19;;;;;;;35.10;17.00;;;;;;;21.02;69.41;100328.20;117767;1183;23998;-84
2021/08/28 03:55:48;;;;;;;23.00;17.40;;;;;;;21.08;69.54;100328.95;117631;1176;22329;-87
2021/08/28 03:58:16;;;;;;;22.30;17.10;;;;;;;21.20;69.95;100339.52;117495;1181;23569;-86
2021/08/28 04:00:44;;;;;;;36.00;20.40;;;;;;;21.29;70.47;100347.77;117649;1182;21865;-87
2021/08/28 04:03:13;;;;;;;30.60;21.00;;;;;;;21.36;71.18;100348.40;117536;1186;21857;-87
2021/08/28 04:46:56;;;;;;;24.00;21.40;;;;;;;21.23;81.93;100358.36;115242;1204;556747;-59
2021/08/28 04:49:24;;;;;;;21.90;19.80;;;;;;;22.09;78.47;100360.04;116884;1189;21861;-66
2021/08/28 04:51:53;;;;;;;21.30;19.10;;;;;;;22.24;78.09;100359.29;116779;1189;22830;-65
2021/08/28 04:54:21;;;;;;;24.70;18.40;;;;;;;22.38;78.04;100363.48;116740;1193;21854;-62
2021/08/28 04:56:50;;;;;;;21.40;17.70;;;;;;;22.50;78.04;100365.08;116776;1191;21863;-61
2021/08/28 04:59:18;;;;;;;22.90;18.30;;;;;;;22.64;77.66;100367.95;116751;1189;21854;-59
2021/08/28 05:01:47;;;;;;;28.30;22.30;;;;;;;22.80;77.41;100368.77;116759;1191;23480;-65
2021/08/28 05:04:15;;;;;;;19.80;16.40;;;;;;;22.92;77.64;100366.73;116799;1189;23455;-59
2021/08/28 05:07:03;;;;;;;15.70;14.20;;;;;;;23.09;77.16;100368.66;116795;1181;22921;-65
2021/08/28 05:09:32;;;;;;;15.70;14.10;;;;;;;23.21;76.88;100375.44;116836;1189;22130;-65
2021/08/28 05:12:00;;;;;;;19.60;14.70;;;;;;;23.30;76.77;100370.20;117123;1189;21849;-65
2021/08/28 05:14:29;;;;;;;15.50;13.90;;;;;;;23.40;76.84;100365.41;117046;1189;24481;-60
2021/08/28 05:16:57;;;;;;;15.60;14.00;;;;;;;23.43;76.96;100367.17;117175;1186;21880;-60
2021/08/28 05:19:25;;;;;;;16.90;15.10;;;;;;;23.55;77.16;100367.63;117234;1186;23462;-59
2021/08/28 05:21:56;;;;;;;;;;;;;;;23.74;76.65;100370.36;117125;1187;21837;-65
2021/08/28 05:24:29;;;;;;;19.10;14.30;;;;;;;23.92;76.51;100371.14;117298;1185;23480;-59
2021/08/28 05:26:57;;;;;;;16.60;14.90;;;;;;;24.09;76.06;100371.95;117369;1183;21995;-59
2021/08/28 05:29:25;;;;;;;16.90;14.80;;;;;;;24.28;75.87;100375.85;117412;1182;23448;-66
2021/08/28 05:31:54;;;;;;;16.20;14.50;;;;;;;24.44;75.58;100376.69;117356;1185;24162;-60
2021/08/28 05:34:22;;;;;;;14.80;13.30;;;;;;;24.61;75.21;100379.61;117448;1183;23438;-65
2021/08/28 05:36:50;;;;;;;14.30;12.80;;;;;;;24.83;74.68;100377.17;117468;1184;23444;-60
2021/08/28 05:39:18;;;;;;;14.20;12.40;;;;;;;25.01;74.38;100377.33;117326;1185;23442;-59
2021/08/28 05:41:47;;;;;;;15.20;11.70;;;;;;;25.19;74.07;100382.61;117353;1182;23470;-59
2021/08/28 05:44:15;;;;;;;12.50;11.30;;;;;;;25.39;73.52;100383.54;117494;1183;23478;-60
2021/08/28 05:46:50;;;;;;;12.40;11.20;;;;;;;25.54;72.81;100380.84;117491;1185;23493;-59
2021/08/28 05:49:18;;;;;;;12.40;11.10;;;;;;;25.60;72.52;100380.52;117461;1186;23442;-66
2021/08/28 05:51:46;;;;;;;12.20;10.90;;;;;;;25.73;72.08;100380.45;117340;1183;21851;-60
2021/08/28 05:54:18;;;;;;;11.60;10.40;;;;;;;25.90;71.58;100383.64;117397;1188;21848;-59
2021/08/28 05:56:46;;;;;;;13.40;10.20;;;;;;;25.98;71.05;100387.04;117345;1186;21846;-59
2021/08/28 05:59:16;;;;;;;13.20;10.20;;;;;;;26.01;70.90;100385.71;117327;1182;23487;-66
2021/08/28 06:01:45;;;;;;;11.10;9.90;;;;;;;26.11;70.78;100384.59;117333;1184;23441;-65
2021/08/28 06:04:14;;;;;;;12.00;10.20;;;;;;;26.35;70.10;100385.08;117292;1185;24151;-60
2021/08/28 06:06:46;;;;;;;10.60;9.20;;;;;;;26.59;69.14;100382.28;117470;1182;23477;-60
2021/08/28 06:09:14;;;;;;;9.40;8.50;;;;;;;26.67;68.59;100382.71;117444;1183;23460;-60
2021/08/28 06:11:43;;;;;;;9.40;8.30;;;;;;;26.77;68.49;100381.08;117430;1183;23469;-61
2021/08/28 06:14:11;;;;;;;11.00;8.80;;;;;;;26.91;67.86;100381.95;117381;1176;23461;-67
2021/08/28 06:16:39;;;;;;;9.20;8.30;;;;;;;26.99;67.03;100382.17;117378;1183;21864;-68
2021/08/28 06:19:09;;;;;;;8.70;7.80;;;;;;;27.00;66.93;100377.41;117364;1186;24152;-59
2021/08/28 06:21:37;;;;;;;10.10;8.60;;;;;;;27.05;65.99;100371.27;117349;1184;23468;-67
2021/08/28 06:24:05;;;;;;;8.30;7.30;;;;;;;27.18;66.26;100371.30;117353;1185;21893;-67
2021/08/28 06:26:34;;;;;;;7.90;7.10;;;;;;;27.29;66.25;100367.86;117378;1185;23442;-61
2021/08/28 06:29:04;;;;;;;8.90;7.60;;;;;;;27.49;66.38;100368.57;117265;1182;21895;-67
2021/08/28 06:31:33;;;;;;;8.60;7.50;;;;;;;27.63;66.14;100374.64;117273;1185;23464;-61
2021/08/28 06:34:01;;;;;;;8.90;8.00;;;;;;;27.80;65.74;100372.80;117251;1184;23458;-61
2021/08/28 06:36:30;;;;;;;10.60;7.80;;;;;;;28.04;65.91;100370.96;117347;1182;23445;-62
2021/08/28 06:38:59;;;;;;;9.50;7.80;;;;;;;28.25;65.18;100371.91;117335;1185;23463;-70
2021/08/28 06:41:27;;;;;;;8.40;7.60;;;;;;;28.42;64.95;100375.84;117301;1183;23444;-69
2021/08/28 06:43:55;;;;;;;7.80;7.00;;;;;;;28.58;64.22;100376.92;117434;1186;23442;-70
2021/08/28 06:46:26;;;;;;;11.10;8.00;;;;;;;28.73;64.02;100382.66;117459;1183;24176;-61
2021/08/28 06:48:54;;;;;;;9.20;7.80;;;;;;;28.99;63.87;100385.97;117328;1183;24216;-61
2021/08/28 06:51:24;;;;;;;9.80;7.20;;;;;;;29.33;63.43;100394.83;117405;1186;21885;-62
2021/08/28 06:53:53;;;;;;;8.70;7.90;;;;;;;29.62;62.86;100397.30;117302;1186;21924;-62
2021/08/28 06:56:21;;;;;;;7.50;6.70;;;;;;;29.93;62.53;100393.89;117260;1188;21868;-61
2021/08/28 06:58:53;;;;;;;9.70;7.10;;;;;;;30.17;61.78;100394.52;117277;1186;21901;-62
2021/08/28 07:01:21;;;;;;;9.00;7.40;;;;;;;30.37;60.70;100397.73;117369;1185;23557;-60
2021/08/28 07:03:50;;;;;;;8.80;6.50;;;;;;;30.62;60.42;100401.28;117396;1183;24163;-61
2021/08/28 07:06:19;;;;;;;8.90;7.40;;;;;;;30.85;60.53;100400.89;117221;1186;22809;-67
2021/08/28 07:08:48;;;;;;;8.20;6.90;;;;;;;31.17;60.33;100398.41;117328;1183;24217;-61
2021/08/28 07:11:16;;;;;;;7.60;6.90;;;;;;;31.41;59.66;100404.29;117405;1185;21839;-68
2021/08/28 07:13:47;;;;;;;7.90;7.00;;;;;;;31.52;58.97;100406.30;117256;1185;23492;-61
2021/08/28 07:16:15;;;;;;;8.80;6.90;;;;;;;31.72;59.07;100406.30;117268;1183;21854;-62
2021/08/28 07:18:44;;;;;;;7.90;6.90;;;;;;;32.00;58.40;100407.81;117385;1182;23679;-68
2021/08/28 07:21:13;;;;;;;8.20;7.30;;;;;;;32.25;57.62;100407.61;117391;1185;21862;-61
2021/08/28 07:23:42;;;;;;;7.90;6.90;;;;;;;32.34;57.28;100403.98;117456;1186;23444;-68
2021/08/28 07:26:10;;;;;;;7.90;7.10;;;;;;;32.36;56.69;100401.41;117343;1182;23442;-62
2021/08/28 07:28:38;;;;;;;9.20;6.90;;;;;;;32.26;56.13;100397.04;117367;1185;22747;-68
2021/08/28 07:31:07;;;;;;;7.60;6.30;;;;;;;32.12;56.52;100391.31;117163;1183;22908;-67
2021/08/28 07:33:36;;;;;;;8.30;7.00;;;;;;;31.98;56.51;100392.29;117358;1183;23544;-62
2021/08/28 07:36:04;;;;;;;7.10;6.40;;;;;;;31.86;56.06;100392.20;117398;1186;21845;-67
2021/08/28 07:38:33;;;;;;;8.40;6.70;;;;;;;31.76;55.85;100390.85;117426;1183;21858;-61
2021/08/28 07:41:01;;;;;;;7.50;6.70;;;;;;;31.58;56.05;100393.73;117445;1182;23463;-68
2021/08/28 07:43:31;;;;;;;7.40;6.60;;;;;;;31.54;56.49;100395.94;117317;1183;22140;-61
2021/08/28 07:45:59;;;;;;;10.50;6.90;;;;;;;31.72;56.31;100394.50;117411;1185;21845;-68
2021/08/28 07:48:27;;;;;;;10.50;6.70;;;;;;;32.13;56.09;100395.02;117424;1183;21858;-59
2021/08/28 07:50:56;;;;;;;7.00;6.30;;;;;;;32.51;55.62;100389.52;117325;1185;23523;-70
2021/08/28 07:53:24;;;;;;;8.40;6.70;;;;;;;32.87;54.44;100389.22;117298;1185;23464;-61
2021/08/28 07:55:52;;;;;;;7.60;6.80;;;;;;;33.13;54.74;100391.11;117451;1182;23469;-61
2021/08/28 07:58:20;;;;;;;9.60;7.30;;;;;;;33.33;53.74;100390.26;117351;1182;23444;-68
2021/08/28 08:00:49;;;;;;;7.90;6.30;;;;;;;33.37;52.77;100388.56;117361;1186;23463;-62
2021/08/28 08:03:18;;;;;;;8.40;6.80;;;;;;;33.26;52.23;100391.88;117440;1182;23630;-61
2021/08/28 08:05:46;;;;;;;9.60;7.10;;;;;;;33.12;53.03;100394.24;117328;1186;22921;-61
2021/08/28 08:08:14;;;;;;;11.30;7.10;;;;;;;33.10;53.12;100390.80;117339;1186;21863;-68
2021/08/28 08:10:43;;;;;;;8.00;7.10;;;;;;;32.99;52.75;100385.78;117337;1182;23482;-68
2021/08/28 08:13:12;;;;;;;9.20;7.00;;;;;;;32.85;52.68;100388.02;117404;1186;23465;-68
2021/08/28 08:15:40;;;;;;;7.80;7.00;;;;;;;32.70;53.46;100388.61;117406;1186;22179;-72
2021/08/28 08:18:08;;;;;;;9.20;6.90;;;;;;;32.77;53.64;100391.81;117367;1186;24166;-62
2021/08/28 08:20:36;;;;;;;7.90;7.10;;;;;;;33.06;53.37;100390.67;117371;1184;22946;-61
2021/08/28 08:23:05;;;;;;;7.30;6.50;;;;;;;33.27;53.20;100387.09;117363;1186;23439;-71
2021/08/28 08:25:33;;;;;;;9.00;6.60;;;;;;;33.48;53.03;100386.90;117271;1185;23544;-62
2021/08/28 08:28:01;;;;;;;8.40;7.10;;;;;;;33.58;52.30;100385.73;117347;1185;21872;-62
2021/08/28 08:30:29;;;;;;;7.30;6.30;;;;;;;33.49;51.84;100381.51;117376;1186;21856;-62
2021/08/28 08:32:57;;;;;;;6.60;5.90;;;;;;;33.36;51.86;100380.83;117333;1185;21858;-61
2021/08/28 08:35:25;;;;;;;13.20;7.40;;;;;;;33.43;51.65;100377.36;117366;1183;21860;-70
2021/08/28 08:37:57;;;;;;;7.70;6.90;;;;;;;33.66;51.01;100378.16;117350;1185;22104;-70
2021/08/28 08:40:26;;;;;;;9.70;6.70;;;;;;;33.55;51.27;100379.89;117335;1186;21886;-61
2021/08/28 08:42:57;;;;;;;7.60;6.60;;;;;;;33.54;51.04;100383.30;117445;1183;21858;-61
2021/08/28 08:45:26;;;;;;;7.20;6.20;;;;;;;33.51;51.22;100382.38;117237;1182;24274;-62
2021/08/28 08:47:59;;;;;;;7.40;6.50;;;;;;;33.74;51.69;100380.22;117480;1182;24168;-70
2021/08/28 08:50:27;;;;;;;6.40;5.80;;;;;;;34.14;50.89;100375.83;117301;1182;21861;-69
2021/08/28 08:53:00;;;;;;;7.40;6.70;;;;;;;34.46;50.17;100371.50;117147;1179;23725;-69
2021/08/28 08:55:29;;;;;;;7.50;6.50;;;;;;;34.67;50.27;100367.30;117365;1186;21852;-62
2021/08/28 08:58:13;;;;;;;10.20;6.50;;;;;;;34.91;49.21;100370.87;117337;1182;24159;-70
2021/08/28 09:00:41;;;;;;;8.60;6.30;;;;;;;35.03;48.96;100370.43;117366;1185;21929;-62
2021/08/28 09:03:09;;;;;;;6.50;5.30;;;;;;;35.21;48.68;100367.47;117300;1185;22617;-62
2021/08/28 09:05:38;;;;;;;7.60;5.70;;;;;;;35.57;47.43;100360.83;117319;1186;23462;-72
2021/08/28 09:08:07;;;;;;;7.50;6.00;;;;;;;35.46;47.84;100364.20;117384;1185;22039;-62
2021/08/28 09:10:35;;;;;;;6.90;5.60;;;;;;;35.51;47.78;100366.62;117393;1185;21899;-63
2021/08/28 09:13:17;;;;;;;8.60;6.20;;;;;;;35.54;47.02;100363.60;117385;1185;23041;-71
2021/08/28 09:16:01;;;;;;;7.20;5.50;;;;;;;35.50;47.39;100366.75;117365;1183;23547;-71
2021/08/28 09:18:50;;;;;;;5.40;4.80;;;;;;;35.72;47.52;100372.79;117367;1182;24007;-70
2021/08/28 09:21:21;;;;;;;6.60;5.50;;;;;;;36.06;46.97;100373.81;117350;1182;21871;-63
2021/08/28 09:24:01;;;;;;;6.30;5.40;;;;;;;36.26;46.53;100372.72;117280;1184;22931;-62
2021/08/28 09:26:38;;;;;;;7.20;4.90;;;;;;;36.46;45.97;100370.98;117439;1183;23569;-62
2021/08/28 09:29:08;;;;;;;6.20;5.10;;;;;;;36.67;45.80;100374.63;117365;1185;23625;-62
2021/08/28 09:31:44;;;;;;;8.20;5.40;;;;;;;36.76;45.21;100376.94;117356;1184;23647;-64
2021/08/28 09:34:23;;;;;;;6.00;5.40;;;;;;;36.81;45.50;100381.92;117417;1183;21864;-71
2021/08/28 09:36:52;;;;;;;5.80;5.20;;;;;;;36.96;45.35;100382.01;117499;1185;21848;-71
2021/08/28 09:39:21;;;;;;;5.70;4.90;;;;;;;37.23;44.99;100378.80;117373;1183;22890;-62
2021/08/28 09:41:55;;;;;;;5.50;4.70;;;;;;;37.60;45.08;100381.54;117348;1185;21858;-62
2021/08/28 09:44:23;;;;;;;6.00;4.80;;;;;;;37.84;43.72;100384.54;117967;1182;24158;-70
2021/08/28 09:46:51;;;;;;;6.50;5.10;;;;;;;37.91;43.47;100382.25;117404;1179;21845;-61
2021/08/28 09:49:22;;;;;;;5.30;4.80;;;;;;;38.12;43.29;100378.35;117234;1182;22079;-61
2021/08/28 09:51:50;;;;;;;5.30;4.60;;;;;;;38.36;43.13;100377.23;117359;1185;21899;-70
2021/08/28 09:54:21;;;;;;;8.60;4.40;;;;;;;38.44;42.66;100382.54;117360;1188;21849;-61
2021/08/28 09:57:02;;;;;;;6.90;4.70;;;;;;;38.55;42.35;100383.61;117459;1184;22513;-61
2021/08/28 09:59:30;;;;;;;6.10;4.80;;;;;;;38.63;42.69;100381.40;117350;1186;21864;-72
2021/08/28 10:02:05;;;;;;;5.50;5.00;;;;;;;38.69;42.46;100378.95;117361;1184;22988;-62
2021/08/28 10:04:53;;;;;;;5.80;4.80;;;;;;;38.82;42.34;100375.33;117444;1183;21854;-68
2021/08/28 10:07:29;;;;;;;6.00;4.70;;;;;;;38.98;41.72;100378.86;117389;1182;21895;-73
2021/08/28 10:09:59;;;;;;;5.60;4.70;;;;;;;39.15;41.42;100376.45;117372;1186;22180;-57
2021/08/28 10:12:50;;;;;;;7.80;4.80;;;;;;;39.33;40.61;100380.41;117320;1184;21858;-61
2021/08/28 10:15:39;;;;;;;5.30;4.60;;;;;;;39.15;39.61;100381.70;117360;1186;21856;-62
2021/08/28 10:18:08;;;;;;;7.20;4.70;;;;;;;38.75;40.39;100385.23;117326;1186;23609;-73
2021/08/28 10:20:36;;;;;;;6.90;5.00;;;;;;;38.56;41.71;100387.52;117355;1185;23572;-61
2021/08/28 10:23:05;;;;;;;5.20;4.30;;;;;;;38.72;41.54;100385.27;117258;1186;21857;-62
2021/08/28 10:25:37;;;;;;;5.60;4.70;;;;;;;39.05;41.28;100381.30;117429;1183;21858;-73
2021/08/28 10:28:07;;;;;;;6.00;4.40;;;;;;;39.22;40.73;100380.41;117328;1183;21857;-73
2021/08/28 10:30:35;;;;;;;6.20;4.60;;;;;;;39.30;39.85;100380.30;117343;1185;22084;-75
2021/08/28 10:33:04;;;;;;;5.40;4.90;;;;;;;39.23;39.87;100376.77;117311;1183;21851;-62
2021/08/28 10:35:32;;;;;;;7.50;5.50;;;;;;;39.08;39.80;100382.53;117535;1184;21859;-62
2021/08/28 10:38:01;;;;;;;7.20;4.70;;;;;;;38.67;40.30;100381.14;117108;1187;24166;-73
2021/08/28 10:40:31;;;;;;;5.60;4.90;;;;;;;38.39;40.52;100380.04;117173;1185;23445;-62
2021/08/28 10:43:03;;;;;;;5.00;4.50;;;;;;;38.19;41.18;100382.45;117408;1185;21858;-73
2021/08/28 10:45:37;;;;;;;5.20;4.50;;;;;;;38.15;41.06;100380.19;117312;1186;21858;-72
2021/08/28 10:48:07;;;;;;;5.60;5.10;;;;;;;38.18;40.73;100378.69;117391;1185;21898;-62
2021/08/28 10:50:38;;;;;;;5.40;4.90;;;;;;;38.28;40.62;100381.84;117366;1184;21968;-61
2021/08/28 10:53:06;;;;;;;6.00;4.80;;;;;;;38.37;40.75;100378.77;117395;1185;21889;-61
2021/08/28 10:55:42;;;;;;;5.20;4.60;;;;;;;38.41;39.97;100376.98;117370;1182;22962;-61
2021/08/28 10:58:15;;;;;;;6.50;4.60;;;;;;;38.35;40.24;100373.73;117305;1182;21853;-73
2021/08/28 11:00:56;;;;;;;5.40;4.80;;;;;;;38.31;40.33;100372.80;117247;1186;22921;-62
2021/08/28 11:03:29;;;;;;;5.60;5.00;;;;;;;38.43;40.08;100372.60;117417;1182;22833;-62
2021/08/28 11:06:13;;;;;;;6.90;4.80;;;;;;;38.48;39.47;100374.23;117358;1185;21854;-61
2021/08/28 11:08:51;;;;;;;7.70;5.10;;;;;;;38.58;39.39;100373.91;117438;1183;23544;-76
2021/08/28 11:11:30;;;;;;;5.40;4.90;;;;;;;38.71;39.08;100370.27;117328;1179;24210;-62
2021/08/28 11:14:02;;;;;;;5.40;4.90;;;;;;;38.73;38.97;100367.37;117329;1182;22965;-62
2021/08/28 11:16:54;;;;;;;5.50;4.80;;;;;;;38.70;38.72;100367.09;117285;1185;22970;-62
2021/08/28 11:19:22;;;;;;;5.40;4.90;;;;;;;38.65;38.76;100371.05;117222;1188;23571;-62
2021/08/28 11:21:52;;;;;;;5.70;5.10;;;;;;;38.78;38.70;100366.42;117325;1182;24200;-62
2021/08/28 11:24:25;;;;;;;6.40;5.00;;;;;;;38.93;38.65;100366.20;117176;1183;24154;-72
2021/08/28 11:26:57;;;;;;;8.70;5.00;;;;;;;39.09;37.85;100360.33;117393;1182;23608;-60
2021/08/28 11:29:30;;;;;;;6.00;5.40;;;;;;;39.08;37.01;100354.05;117453;1185;22106;-74
2021/08/28 11:32:13;;;;;;;6.20;4.80;;;;;;;38.82;37.64;100352.23;117299;1186;21859;-64
2021/08/28 11:34:52;;;;;;;6.40;4.80;;;;;;;38.55;38.05;100353.71;117427;1185;21864;-74
2021/08/28 11:37:30;;;;;;;8.60;4.90;;;;;;;38.30;37.71;100351.15;117359;1186;21861;-74
2021/08/28 11:40:00;;;;;;;8.20;5.40;;;;;;;38.01;37.80;100347.92;117344;1185;23582;-72
2021/08/28 11:42:32;;;;;;;7.00;4.80;;;;;;;37.99;39.26;100345.85;117284;1185;21860;-74
2021/08/28 11:45:00;;;;;;;6.40;4.50;;;;;;;38.31;39.84;100345.63;117399;1185;22926;-75
2021/08/28 11:47:29;;;;;;;6.60;5.00;;;;;;;38.62;38.72;100342.87;117385;1185;21947;-63
2021/08/28 11:49:59;;;;;;;6.70;4.70;;;;;;;38.91;38.18;100337.99;117364;1185;23903;-76
2021/08/28 11:52:33;;;;;;;6.40;4.70;;;;;;;39.12;37.30;100335.59;117426;1185;22616;-74
2021/08/28 11:55:05;;;;;;;5.30;4.80;;;;;;;39.32;37.01;100328.05;117344;1182;22949;-80
2021/08/28 11:57:35;;;;;;;8.30;4.60;;;;;;;39.40;36.08;100324.55;117346;1182;21869;-61
2021/08/28 12:00:07;;;;;;;5.50;4.60;;;;;;;39.45;36.68;100323.72;117363;1185;21865;-78
2021/08/28 12:02:36;;;;;;;5.90;4.50;;;;;;;39.57;38.10;100322.06;117317;1186;21857;-62
2021/08/28 12:05:12;;;;;;;6.20;5.10;;;;;;;39.76;37.25;100315.34;117151;1186;21942;-74